Kezdőlap
METAR-TAF:

METAR-TAF

Repülőterek :

Kosrae, Mikronézia

földrajzi szélesség: 05-21N, földrajzi hosszúság: 162-57E, magasság: 3 m

Jelenlegi meteorológiai megfigyelések

A jelentés 14 órával és 31 perccel ezelõtt készült, 23:50 UTC
Északkeleti szél 13 kt
Hőmérséklet 31°C
Páratartalom 71%
Légköri nyomás 1008 hPa
Látótávolság: 16.1 km
Szórványos felhőzet 2100 lábon
Szakadozott felhőzet 30000 lábon

METAR: PTSA 182350Z 05013KT 10SM SCT021 BKN300 31/25 A2978 RMK LAST

Idő: 01:21 (14:21 UTC)

Előrejelzés

A jelentés 14 órával és 50 perccel ezelõtt készült, 23:31 UTC
Az előrejelzés 19-én 00 óra UTC és 19-én 24 óra UTC között érvényes
Északkeleti szél 11 kt
Látótávolság: 10 km
Szórványos felhőzet 2000 lábon

TAF: PTSA 182331Z 1900/1924 04011KT P6SM SCT020

Meteorológiai megfigyelések és előrejelzések több, mint 4000 repülőtéren (METAR és TAF jelentéseket).

A térképen piros és sárga pontok jelzik az elérhető meteorológiai állomásokat.

Mozgassa az egeret a pont fölött, hogy megjelenjen az állomás neve.

Azután kattintson az időjárási megfigyelések és előrejelzések megtekintéséhez.

A térkép megváltoztatása: kattintson a fekete keresztel jelölt zöld gombra ráközelítéshez, a vonallal jelölt zöld gombra távolításhoz, vagy a zöld nyilakra a szomszédos térképek eléréséhez.


METAR-TAF: